createdAt,value
2022-12-17T00:00:22.037Z,31.90
2022-12-17T00:03:15.239Z,31.70
2022-12-17T00:06:00.479Z,28.52
2022-12-17T00:08:46.680Z,29.17
2022-12-17T00:11:31.535Z,27.33
2022-12-17T00:14:16.808Z,31.00
2022-12-17T00:17:01.741Z,29.25
2022-12-17T00:19:46.863Z,33.35
2022-12-17T00:22:31.883Z,29.33
2022-12-17T00:25:18.061Z,32.67
2022-12-17T00:28:03.648Z,30.17
2022-12-17T00:30:48.397Z,32.15
2022-12-17T00:33:33.907Z,30.25
2022-12-17T00:36:19.144Z,29.27
2022-12-17T00:39:04.854Z,34.08
2022-12-17T00:41:51.002Z,29.75
2022-12-17T00:44:36.004Z,31.30
2022-12-17T00:47:23.008Z,29.15
2022-12-17T00:50:08.062Z,29.13
2022-12-17T00:52:53.192Z,26.58
2022-12-17T00:55:41.535Z,29.95
2022-12-17T00:58:27.490Z,29.50
2022-12-17T01:01:16.130Z,28.92
2022-12-17T01:04:01.193Z,27.33
2022-12-17T01:06:46.229Z,30.05
2022-12-17T01:09:31.018Z,29.13
2022-12-17T01:15:05.198Z,26.65
2022-12-17T01:17:50.395Z,26.77
2022-12-17T01:20:35.138Z,27.38
2022-12-17T01:23:20.064Z,29.85
2022-12-17T01:26:10.931Z,28.45
2022-12-17T01:28:55.976Z,29.90
2022-12-17T01:31:42.359Z,27.05
2022-12-17T01:34:27.723Z,22.45
2022-12-17T01:37:12.494Z,24.92
2022-12-17T01:39:57.538Z,25.77
2022-12-17T01:42:42.258Z,24.98
2022-12-17T01:45:29.697Z,23.75
2022-12-17T01:48:17.648Z,24.33
2022-12-17T01:51:03.388Z,26.88
2022-12-17T01:53:49.848Z,24.80
2022-12-17T01:56:35.168Z,26.23
2022-12-17T01:59:21.019Z,26.08
2022-12-17T02:02:06.209Z,26.70
2022-12-17T02:04:52.476Z,28.52
2022-12-17T02:07:50.155Z,27.45
2022-12-17T02:10:39.819Z,26.05
2022-12-17T02:13:28.663Z,26.17
2022-12-17T02:16:17.237Z,29.25
2022-12-17T02:19:04.029Z,26.25
2022-12-17T02:21:50.924Z,26.35
2022-12-17T02:24:39.906Z,26.65
2022-12-17T02:27:30.428Z,29.98
2022-12-17T02:30:16.512Z,27.95
2022-12-17T02:33:02.211Z,28.23
2022-12-17T02:35:49.116Z,28.98
2022-12-17T02:38:35.171Z,27.90
2022-12-17T02:41:20.797Z,27.58
2022-12-17T02:44:07.081Z,30.05
2022-12-17T02:46:51.922Z,30.27
2022-12-17T02:52:25.552Z,29.63
2022-12-17T02:55:13.455Z,31.50
2022-12-17T02:57:58.555Z,27.75
2022-12-17T03:00:44.647Z,30.58
2022-12-17T03:03:29.665Z,31.05
2022-12-17T03:06:14.858Z,33.05
2022-12-17T03:09:02.164Z,31.27
2022-12-17T03:11:47.305Z,33.75
2022-12-17T03:14:32.423Z,36.88
2022-12-17T03:17:18.952Z,34.08
2022-12-17T03:20:03.942Z,34.75
2022-12-17T03:22:48.789Z,35.28
2022-12-17T03:25:42.208Z,34.13
2022-12-17T03:28:27.892Z,33.05
2022-12-17T03:31:12.136Z,33.42
2022-12-17T03:33:58.137Z,34.50
2022-12-17T03:36:43.098Z,32.85
2022-12-17T03:39:28.240Z,32.38
2022-12-17T03:42:12.830Z,35.30
2022-12-17T03:44:57.989Z,31.90
2022-12-17T03:47:42.651Z,29.52
2022-12-17T03:50:28.744Z,32.00
2022-12-17T03:53:13.574Z,26.42
2022-12-17T03:55:58.264Z,33.88
2022-12-17T04:01:27.986Z,29.00
2022-12-17T04:04:13.317Z,29.95
2022-12-17T04:06:59.548Z,32.25
2022-12-17T04:09:44.518Z,29.63
2022-12-17T04:12:29.135Z,28.10
2022-12-17T04:15:14.211Z,29.10
2022-12-17T04:17:59.184Z,28.25
2022-12-17T04:20:43.907Z,26.92
2022-12-17T04:26:11.143Z,28.35
2022-12-17T04:28:56.035Z,27.08
2022-12-17T04:31:40.985Z,29.88
2022-12-17T04:34:25.809Z,28.20
2022-12-17T04:39:55.506Z,27.52
2022-12-17T04:42:41.444Z,27.63
2022-12-17T04:45:26.676Z,28.88
2022-12-17T04:48:18.864Z,29.45
2022-12-17T04:51:03.513Z,26.10
2022-12-17T04:54:03.141Z,27.92
2022-12-17T04:56:53.483Z,27.00
2022-12-17T04:59:39.512Z,28.92
2022-12-17T05:02:24.588Z,23.08
2022-12-17T05:05:09.907Z,30.95
2022-12-17T05:07:54.939Z,29.38
2022-12-17T05:10:39.959Z,27.10
2022-12-17T05:13:24.690Z,31.48
2022-12-17T05:19:10.425Z,29.92
2022-12-17T05:21:55.343Z,28.38
2022-12-17T05:24:40.126Z,30.73
2022-12-17T05:30:09.847Z,29.58
2022-12-17T05:32:54.686Z,29.67
2022-12-17T05:35:41.008Z,29.08
2022-12-17T05:38:26.878Z,29.55
2022-12-17T05:41:14.631Z,27.42
2022-12-17T05:43:59.679Z,31.88
2022-12-17T05:46:44.975Z,29.88
2022-12-17T05:49:29.740Z,29.92
2022-12-17T05:55:00.850Z,33.25
2022-12-17T05:57:45.763Z,28.00
2022-12-17T06:00:31.054Z,31.20
2022-12-17T06:03:16.655Z,30.50
2022-12-17T06:06:01.381Z,30.88
2022-12-17T06:11:37.618Z,30.35
2022-12-17T06:14:22.572Z,26.73
2022-12-17T06:17:07.319Z,32.15
2022-12-17T06:22:37.228Z,29.10
2022-12-17T06:25:22.337Z,25.95
2022-12-17T06:28:15.870Z,29.88
2022-12-17T06:31:00.696Z,28.73
2022-12-17T06:33:45.719Z,25.85
2022-12-17T06:36:30.753Z,27.52
2022-12-17T06:39:15.753Z,30.52
2022-12-17T06:42:04.324Z,31.45
2022-12-17T06:44:51.048Z,32.42
2022-12-17T06:47:36.263Z,33.65
2022-12-17T06:50:21.218Z,27.20
2022-12-17T06:53:06.138Z,27.80
2022-12-17T06:55:53.962Z,31.05
2022-12-17T06:58:38.605Z,31.67
2022-12-17T07:04:10.084Z,29.88
2022-12-17T07:06:54.952Z,40.90
2022-12-17T07:09:40.008Z,33.72
2022-12-17T07:12:25.286Z,30.00
2022-12-17T07:15:10.421Z,41.63
2022-12-17T07:17:55.268Z,36.60
2022-12-17T07:20:41.247Z,34.05
2022-12-17T07:23:26.712Z,37.33
2022-12-17T07:26:11.400Z,29.27
2022-12-17T07:31:41.645Z,38.53
2022-12-17T07:34:26.483Z,35.35
2022-12-17T07:37:14.939Z,35.25
2022-12-17T07:40:03.920Z,43.85
2022-12-17T07:42:48.576Z,36.25
2022-12-17T07:48:18.344Z,35.08
2022-12-17T07:51:06.753Z,37.90
2022-12-17T07:53:53.391Z,35.67
2022-12-17T07:56:38.902Z,37.75
2022-12-17T07:59:23.936Z,37.35
2022-12-17T08:02:08.724Z,38.40
2022-12-17T08:04:53.676Z,39.30
2022-12-17T08:07:38.829Z,40.08
2022-12-17T08:10:25.785Z,35.40
2022-12-17T08:13:14.567Z,37.10
2022-12-17T08:15:59.999Z,37.08
2022-12-17T08:18:45.043Z,38.90
2022-12-17T08:21:30.402Z,42.70
2022-12-17T08:24:15.339Z,39.88
2022-12-17T08:27:01.327Z,34.63
2022-12-17T08:29:46.227Z,33.22
2022-12-17T08:32:30.959Z,35.22
2022-12-17T08:35:15.992Z,33.75
2022-12-17T08:38:00.648Z,34.10
2022-12-17T08:43:31.279Z,37.55
2022-12-17T08:46:16.468Z,34.20
2022-12-17T08:49:01.466Z,35.67
2022-12-17T08:51:46.267Z,36.30
2022-12-17T08:54:31.120Z,35.28
2022-12-17T08:57:30.493Z,35.75
2022-12-17T09:00:17.817Z,38.15
2022-12-17T09:03:02.883Z,29.67
2022-12-17T09:05:47.896Z,32.15
2022-12-17T09:08:32.873Z,27.42
2022-12-17T09:11:18.083Z,31.75
2022-12-17T09:14:05.288Z,31.08
2022-12-17T09:16:51.510Z,20.38
2022-12-17T09:19:36.323Z,30.05
2022-12-17T09:22:21.194Z,31.13
2022-12-17T09:25:06.209Z,29.05
2022-12-17T09:27:51.225Z,26.40
2022-12-17T09:30:36.502Z,29.15
2022-12-17T09:33:22.780Z,32.22
2022-12-17T09:36:07.729Z,27.27
2022-12-17T09:38:52.736Z,32.95
2022-12-17T09:41:43.550Z,28.48
2022-12-17T09:44:35.002Z,29.40
2022-12-17T09:47:24.444Z,28.48
2022-12-17T09:50:10.610Z,27.67
2022-12-17T09:52:57.216Z,26.73
2022-12-17T09:55:43.228Z,29.23
2022-12-17T09:58:51.042Z,29.52
2022-12-17T10:01:37.553Z,28.95
2022-12-17T10:04:22.929Z,26.35
2022-12-17T10:07:08.884Z,27.50
2022-12-17T10:09:54.460Z,27.70
2022-12-17T10:12:39.628Z,28.35
2022-12-17T10:15:26.106Z,18.83
2022-12-17T10:18:11.189Z,26.38
2022-12-17T10:20:57.858Z,21.33
2022-12-17T10:23:45.058Z,26.60
2022-12-17T10:26:33.950Z,21.52
2022-12-17T10:29:20.388Z,25.52
2022-12-17T10:32:05.098Z,25.58
2022-12-17T10:37:37.303Z,23.38
2022-12-17T10:40:33.355Z,22.90
2022-12-17T10:43:18.044Z,25.52
2022-12-17T10:49:00.761Z,25.55
2022-12-17T10:51:48.819Z,25.10
2022-12-17T10:54:41.621Z,24.85
2022-12-17T10:57:36.934Z,19.33
2022-12-17T11:00:32.523Z,20.80
2022-12-17T11:03:20.068Z,24.90
2022-12-17T11:06:07.365Z,23.80
2022-12-17T11:08:52.320Z,20.25
2022-12-17T11:11:37.511Z,23.88
2022-12-17T11:14:26.503Z,23.52
2022-12-17T11:17:12.267Z,25.02
2022-12-17T11:20:00.644Z,26.05
2022-12-17T11:22:48.519Z,26.35
2022-12-17T11:25:51.234Z,28.60
2022-12-17T11:28:39.392Z,28.08
2022-12-17T11:31:33.579Z,26.30
2022-12-17T11:34:21.770Z,27.33
2022-12-17T11:37:09.215Z,23.08
2022-12-17T11:39:58.370Z,24.17
2022-12-17T11:42:45.010Z,27.38
2022-12-17T11:45:40.912Z,25.08
2022-12-17T11:48:32.347Z,23.90
2022-12-17T11:51:20.011Z,25.77
2022-12-17T11:54:08.436Z,24.55
2022-12-17T11:56:55.264Z,22.80
2022-12-17T11:59:50.959Z,22.50
2022-12-17T12:02:47.242Z,19.48
2022-12-17T12:05:37.269Z,23.17
2022-12-17T12:08:28.234Z,19.70
2022-12-17T12:11:12.857Z,20.60
2022-12-17T12:13:59.893Z,18.38
2022-12-17T12:16:48.816Z,19.90
2022-12-17T12:19:36.539Z,18.55
2022-12-17T12:22:30.656Z,19.17
2022-12-17T12:25:33.527Z,16.73
2022-12-17T12:28:22.405Z,19.45
2022-12-17T12:31:11.164Z,18.80
2022-12-17T12:34:01.117Z,19.63
2022-12-17T12:36:46.684Z,18.25
2022-12-17T12:39:43.067Z,19.40
2022-12-17T12:42:33.214Z,17.95
2022-12-17T12:45:21.560Z,18.38
2022-12-17T12:48:09.904Z,17.02
2022-12-17T12:51:00.337Z,20.63
2022-12-17T12:53:45.989Z,17.00
2022-12-17T12:56:46.321Z,18.58
2022-12-17T12:59:38.081Z,14.60
2022-12-17T13:02:31.540Z,17.88
2022-12-17T13:05:17.569Z,17.63
2022-12-17T13:07:46.577Z,18.13
2022-12-17T13:10:23.444Z,19.63
2022-12-17T13:12:54.929Z,18.13
2022-12-17T13:20:32.791Z,18.15
2022-12-17T13:23:15.345Z,16.63
2022-12-17T13:25:45.477Z,16.50
2022-12-17T13:28:31.320Z,18.65
2022-12-17T13:31:13.997Z,17.48
2022-12-17T13:33:47.249Z,17.13
2022-12-17T13:36:18.832Z,14.50
2022-12-17T13:38:53.562Z,18.33
2022-12-17T13:41:24.970Z,18.02
2022-12-17T13:43:56.754Z,17.20
2022-12-17T13:46:30.220Z,17.27
2022-12-17T13:48:58.833Z,17.17
2022-12-17T13:51:28.200Z,17.20
2022-12-17T13:53:57.544Z,16.00
2022-12-17T13:56:26.843Z,16.63
2022-12-17T13:59:04.520Z,18.58
2022-12-17T14:01:50.609Z,16.92
2022-12-17T14:04:24.376Z,17.38
2022-12-17T14:06:54.913Z,14.88
2022-12-17T14:09:23.589Z,14.73
2022-12-17T14:12:08.531Z,14.90
2022-12-17T14:14:40.875Z,16.02
2022-12-17T14:17:16.738Z,15.73
2022-12-17T14:19:46.789Z,13.52
2022-12-17T14:22:19.383Z,17.38
2022-12-17T14:24:47.579Z,15.30
2022-12-17T14:27:24.693Z,14.25
2022-12-17T14:29:58.650Z,14.20
2022-12-17T14:32:29.420Z,13.93
2022-12-17T14:35:01.223Z,14.13
2022-12-17T14:37:32.342Z,12.68
2022-12-17T14:40:09.134Z,15.80
2022-12-17T14:42:39.892Z,17.48
2022-12-17T14:45:22.052Z,17.35
2022-12-17T14:47:57.346Z,16.52
2022-12-17T14:50:31.193Z,15.98
2022-12-17T14:53:02.154Z,16.80
2022-12-17T14:55:31.701Z,16.88
2022-12-17T14:58:16.682Z,17.40
2022-12-17T15:00:52.802Z,16.80
2022-12-17T15:03:39.575Z,18.45
2022-12-17T15:06:10.468Z,19.48
2022-12-17T15:08:40.827Z,17.77
2022-12-17T15:11:08.349Z,19.67
2022-12-17T15:13:35.788Z,19.58
2022-12-17T15:16:04.673Z,19.92
2022-12-17T15:18:32.056Z,21.38
2022-12-17T15:20:59.416Z,20.92
2022-12-17T15:23:26.785Z,19.77
2022-12-17T15:25:55.067Z,21.00
2022-12-17T15:28:23.028Z,19.15
2022-12-17T15:30:50.775Z,18.77
2022-12-17T15:33:19.570Z,19.40
2022-12-17T15:35:46.927Z,20.23
2022-12-17T15:38:14.612Z,20.95
2022-12-17T15:40:42.009Z,19.33
2022-12-17T15:43:12.442Z,18.98
2022-12-17T15:45:41.345Z,19.83
2022-12-17T15:48:09.044Z,21.23
2022-12-17T15:50:38.082Z,20.40
2022-12-17T15:53:05.681Z,20.85
2022-12-17T15:55:33.019Z,21.50
2022-12-17T15:58:00.408Z,23.23
2022-12-17T16:00:29.387Z,26.67
2022-12-17T16:02:56.978Z,23.73
2022-12-17T16:05:24.463Z,23.20
2022-12-17T16:07:53.220Z,25.83
2022-12-17T16:10:20.650Z,29.23
2022-12-17T16:12:48.004Z,26.48
2022-12-17T16:15:15.287Z,24.55
2022-12-17T16:17:42.616Z,25.80
2022-12-17T16:20:10.456Z,24.85
2022-12-17T16:22:37.929Z,24.83
2022-12-17T16:25:06.984Z,25.40
2022-12-17T16:27:34.314Z,27.13
2022-12-17T16:30:03.156Z,26.02
2022-12-17T16:32:36.188Z,25.30
2022-12-17T16:35:04.625Z,28.35
2022-12-17T16:37:31.954Z,26.70
2022-12-17T16:40:00.443Z,26.27
2022-12-17T16:42:29.518Z,28.17
2022-12-17T16:44:56.925Z,24.98
2022-12-17T16:47:24.278Z,27.30
2022-12-17T16:49:51.659Z,27.65
2022-12-17T16:52:19.057Z,26.05
2022-12-17T16:54:46.331Z,26.95
2022-12-17T16:57:13.628Z,24.90
2022-12-17T16:59:42.271Z,25.85
2022-12-17T17:02:12.953Z,26.67
2022-12-17T17:04:40.499Z,27.45
2022-12-17T17:07:08.002Z,28.65
2022-12-17T17:09:35.326Z,27.13
2022-12-17T17:12:02.709Z,27.25
2022-12-17T17:14:30.071Z,27.25
2022-12-17T17:16:59.375Z,28.52
2022-12-17T17:19:26.794Z,30.02
2022-12-17T17:21:54.778Z,27.40
2022-12-17T17:24:23.910Z,29.55
2022-12-17T17:26:51.857Z,27.85
2022-12-17T17:29:19.168Z,28.35
2022-12-17T17:32:09.873Z,27.15
2022-12-17T17:34:37.856Z,28.00
2022-12-17T17:37:05.223Z,25.50
2022-12-17T17:39:34.109Z,25.55
2022-12-17T17:42:01.705Z,25.98
2022-12-17T17:44:29.002Z,26.65
2022-12-17T17:46:56.404Z,28.88
2022-12-17T17:49:23.931Z,27.25
2022-12-17T17:52:09.036Z,26.63
2022-12-17T17:54:37.124Z,26.75
2022-12-17T17:57:04.443Z,27.90
2022-12-17T17:59:33.990Z,29.27
2022-12-17T18:02:02.661Z,29.83
2022-12-17T18:04:30.259Z,27.33
2022-12-17T18:09:46.431Z,26.27
2022-12-17T18:12:31.288Z,27.55
2022-12-17T18:15:16.872Z,23.70
2022-12-17T18:17:47.212Z,30.10
2022-12-17T18:20:14.730Z,27.50
2022-12-17T18:22:43.437Z,24.95
2022-12-17T18:25:10.831Z,24.38
2022-12-17T18:27:38.215Z,24.42
2022-12-17T18:30:06.076Z,23.08
2022-12-17T18:32:33.353Z,23.45
2022-12-17T18:35:00.737Z,22.77
2022-12-17T18:37:28.052Z,25.00
2022-12-17T18:39:56.785Z,24.83
2022-12-17T18:42:46.664Z,25.90
2022-12-17T18:45:14.059Z,24.65
2022-12-17T18:47:42.394Z,25.33
2022-12-17T18:50:10.251Z,23.95
2022-12-17T18:52:37.598Z,22.25
2022-12-17T18:55:06.880Z,22.65
2022-12-17T18:57:34.175Z,23.98
2022-12-17T19:00:01.517Z,23.73
2022-12-17T19:02:29.023Z,24.23
2022-12-17T19:04:56.566Z,26.35
2022-12-17T19:07:23.943Z,24.42
2022-12-17T19:09:51.377Z,23.35
2022-12-17T19:12:20.043Z,28.23
2022-12-17T19:14:47.414Z,25.33
2022-12-17T19:17:14.673Z,25.33
2022-12-17T19:19:41.982Z,26.67
2022-12-17T19:22:09.268Z,27.45
2022-12-17T19:24:37.685Z,26.20
2022-12-17T19:27:05.083Z,26.23
2022-12-17T19:29:33.957Z,26.00
2022-12-17T19:32:01.317Z,30.42
2022-12-17T19:34:28.784Z,27.55
2022-12-17T19:36:56.162Z,29.58
2022-12-17T19:39:23.441Z,26.58
2022-12-17T19:41:51.023Z,26.25
2022-12-17T19:44:19.919Z,25.50
2022-12-17T19:46:48.619Z,26.63
2022-12-17T19:49:16.856Z,25.02
2022-12-17T19:51:44.569Z,27.13
2022-12-17T19:54:12.864Z,27.88
2022-12-17T19:56:40.146Z,26.60
2022-12-17T19:59:08.788Z,26.88
2022-12-17T20:01:37.999Z,26.63
2022-12-17T20:04:06.852Z,27.17
2022-12-17T20:06:35.113Z,26.52
2022-12-17T20:09:04.540Z,29.33
2022-12-17T20:11:34.590Z,23.23
2022-12-17T20:14:11.385Z,27.30
2022-12-17T20:16:39.692Z,26.02
2022-12-17T20:19:09.504Z,25.88
2022-12-17T20:21:40.057Z,25.45
2022-12-17T20:24:10.326Z,27.23
2022-12-17T20:26:42.096Z,27.42
2022-12-17T20:29:10.496Z,27.40
2022-12-17T20:31:38.273Z,28.17
2022-12-17T20:34:07.300Z,27.27
2022-12-17T20:36:36.114Z,27.75
2022-12-17T20:39:04.049Z,27.25
2022-12-17T20:41:32.504Z,25.30
2022-12-17T20:44:04.979Z,25.08
2022-12-17T20:46:32.517Z,26.30
2022-12-17T20:49:00.304Z,25.65
2022-12-17T20:51:31.595Z,25.27
2022-12-17T20:54:01.968Z,25.00
2022-12-17T20:56:33.047Z,26.42
2022-12-17T20:59:02.281Z,26.83
2022-12-17T21:01:30.737Z,28.25
2022-12-17T21:04:06.114Z,26.52
2022-12-17T21:06:37.493Z,24.17
2022-12-17T21:09:06.628Z,27.80
2022-12-17T21:11:34.726Z,25.17
2022-12-17T21:14:04.815Z,30.83
2022-12-17T21:16:32.544Z,28.10
2022-12-17T21:19:00.730Z,29.30
2022-12-17T21:21:30.689Z,29.17
2022-12-17T21:23:58.625Z,29.48
2022-12-17T21:26:32.525Z,26.50
2022-12-17T21:29:00.663Z,27.60
2022-12-17T21:31:29.668Z,25.33
2022-12-17T21:33:58.964Z,24.95
2022-12-17T21:36:27.823Z,24.10
2022-12-17T21:38:55.411Z,26.05
2022-12-17T21:41:23.531Z,25.67
2022-12-17T21:43:54.340Z,24.52
2022-12-17T21:46:21.903Z,25.90
2022-12-17T21:48:49.814Z,25.70
2022-12-17T21:51:17.625Z,23.75
2022-12-17T21:53:45.180Z,22.83
2022-12-17T21:56:13.251Z,26.13
2022-12-17T21:58:41.739Z,24.42
2022-12-17T22:01:16.535Z,23.27
2022-12-17T22:03:46.755Z,24.48
2022-12-17T22:06:16.652Z,24.27
2022-12-17T22:08:44.472Z,24.15
2022-12-17T22:11:12.972Z,20.92
2022-12-17T22:14:05.048Z,21.85
2022-12-17T22:16:38.955Z,19.92
2022-12-17T22:19:07.072Z,22.95
2022-12-17T22:21:35.111Z,23.15
2022-12-17T22:24:02.396Z,22.90
2022-12-17T22:26:29.829Z,22.38
2022-12-17T22:28:57.300Z,21.00
2022-12-17T22:31:42.334Z,22.60
2022-12-17T22:34:46.976Z,22.48
2022-12-17T22:39:09.383Z,21.67
2022-12-17T22:44:31.563Z,22.05
2022-12-17T22:44:40.878Z,21.17
2022-12-17T22:45:39.788Z,22.80
2022-12-17T22:48:07.503Z,22.98
2022-12-17T22:50:38.992Z,17.85
2022-12-17T22:53:18.389Z,18.10
2022-12-17T22:55:46.015Z,23.40
2022-12-17T22:58:13.374Z,18.25
2022-12-17T23:00:40.687Z,22.67
2022-12-17T23:03:08.184Z,19.15
2022-12-17T23:05:37.079Z,20.50
2022-12-17T23:08:04.480Z,19.60
2022-12-17T23:10:31.775Z,20.98
2022-12-17T23:12:59.136Z,18.85
2022-12-17T23:15:28.082Z,19.88
2022-12-17T23:17:57.071Z,18.95
2022-12-17T23:20:24.642Z,20.58
2022-12-17T23:22:53.307Z,18.45
2022-12-17T23:25:20.682Z,19.52
2022-12-17T23:27:48.271Z,19.38
2022-12-17T23:30:16.764Z,16.52
2022-12-17T23:32:44.263Z,20.30
2022-12-17T23:35:12.290Z,18.33
2022-12-17T23:37:40.460Z,19.92
2022-12-17T23:40:14.811Z,16.58
2022-12-17T23:42:42.229Z,13.32
2022-12-17T23:45:11.732Z,18.73
2022-12-17T23:47:39.327Z,17.00
2022-12-17T23:50:07.598Z,19.17
2022-12-17T23:52:34.993Z,18.15
2022-12-17T23:55:02.452Z,17.02
2022-12-17T23:57:31.305Z,20.20
2022-12-17T23:59:58.570Z,17.67
